createdAt,value
2018-06-18T00:00:25.053Z,94.00
2018-06-18T00:02:55.713Z,94.20
2018-06-18T00:05:25.360Z,94.10
2018-06-18T00:07:54.863Z,94.20
2018-06-18T00:10:24.031Z,94.30
2018-06-18T00:12:54.888Z,94.40
2018-06-18T00:15:24.178Z,94.50
2018-06-18T00:17:53.742Z,94.40
2018-06-18T00:20:23.190Z,94.40
2018-06-18T00:22:52.646Z,94.50
2018-06-18T00:25:21.844Z,94.60
2018-06-18T00:28:08.509Z,94.60
2018-06-18T00:30:38.687Z,94.70
2018-06-18T00:33:08.383Z,95.00
2018-06-18T00:35:37.913Z,95.00
2018-06-18T00:38:07.340Z,94.90
2018-06-18T00:40:36.556Z,95.00
2018-06-18T00:45:35.010Z,94.80
2018-06-18T00:48:04.560Z,94.90
2018-06-18T00:50:34.563Z,94.80
2018-06-18T00:53:03.818Z,94.90
2018-06-18T00:55:43.822Z,94.80
2018-06-18T00:58:12.784Z,94.90
2018-06-18T01:00:42.566Z,95.00
2018-06-18T01:03:11.977Z,95.20
2018-06-18T01:05:41.014Z,95.20
2018-06-18T01:08:10.470Z,95.30
2018-06-18T01:10:39.863Z,95.40
2018-06-18T01:13:09.654Z,95.80
2018-06-18T01:18:10.133Z,95.10
2018-06-18T01:20:42.808Z,95.10
2018-06-18T01:25:21.797Z,95.20
2018-06-18T01:27:50.837Z,95.60
2018-06-18T01:30:21.968Z,95.70
2018-06-18T01:32:58.568Z,95.70
2018-06-18T01:35:31.743Z,95.90
2018-06-18T01:38:04.370Z,96.20
2018-06-18T01:40:34.624Z,96.30
2018-06-18T01:43:10.649Z,96.20
2018-06-18T01:45:48.685Z,96.20
2018-06-18T01:48:20.119Z,96.30
2018-06-18T01:50:53.999Z,96.40
2018-06-18T01:53:23.470Z,96.70
2018-06-18T01:58:25.894Z,96.30
2018-06-18T02:00:55.176Z,96.30
2018-06-18T02:03:27.720Z,96.30
2018-06-18T02:05:57.048Z,95.90
2018-06-18T02:08:30.971Z,95.80
2018-06-18T02:11:02.197Z,95.80
2018-06-18T02:13:36.956Z,95.70
2018-06-18T02:16:06.545Z,95.60
2018-06-18T02:18:51.576Z,95.40
2018-06-18T02:21:26.962Z,95.50
2018-06-18T02:23:57.450Z,95.50
2018-06-18T02:26:28.892Z,95.50
2018-06-18T02:29:04.236Z,95.60
2018-06-18T02:31:38.764Z,95.80
2018-06-18T02:34:13.185Z,95.80
2018-06-18T02:36:47.826Z,95.70
2018-06-18T02:39:20.848Z,95.60
2018-06-18T02:41:51.734Z,95.50
2018-06-18T02:44:22.138Z,95.70
2018-06-18T02:46:51.364Z,96.00
2018-06-18T02:51:51.682Z,96.20
2018-06-18T02:54:21.687Z,96.20
2018-06-18T02:56:56.016Z,96.10
2018-06-18T02:59:24.999Z,96.10
2018-06-18T03:01:57.311Z,96.00
2018-06-18T03:04:28.731Z,96.00
2018-06-18T03:06:57.722Z,96.00
2018-06-18T03:09:27.880Z,96.00
2018-06-18T03:11:57.130Z,96.20
2018-06-18T03:14:26.296Z,96.20
2018-06-18T03:16:55.570Z,96.20
2018-06-18T03:19:29.672Z,96.20
2018-06-18T03:22:04.298Z,96.30
2018-06-18T03:24:38.422Z,96.30
2018-06-18T03:27:14.229Z,96.40
2018-06-18T03:29:43.339Z,96.30
2018-06-18T03:32:14.631Z,96.30
2018-06-18T03:34:44.895Z,96.50
2018-06-18T03:37:17.174Z,96.50
2018-06-18T03:39:46.723Z,96.60
2018-06-18T03:42:15.975Z,96.40
2018-06-18T03:44:54.004Z,96.20
2018-06-18T03:47:28.550Z,96.20
2018-06-18T03:49:57.714Z,96.20
2018-06-18T03:52:27.565Z,96.40
2018-06-18T03:54:59.426Z,96.10
2018-06-18T03:57:29.561Z,96.00
2018-06-18T03:59:59.188Z,96.00
2018-06-18T04:02:37.494Z,95.90
2018-06-18T04:05:12.117Z,95.80
2018-06-18T04:07:46.873Z,95.80
2018-06-18T04:15:21.324Z,95.90
2018-06-18T04:17:51.223Z,95.90
2018-06-18T04:20:21.642Z,95.70
2018-06-18T04:22:50.891Z,95.90
2018-06-18T04:25:20.840Z,95.80
2018-06-18T04:27:51.329Z,96.00
2018-06-18T04:30:21.741Z,95.80
2018-06-18T04:32:51.027Z,96.00
2018-06-18T04:35:20.770Z,95.90
2018-06-18T04:40:21.416Z,96.00
2018-06-18T04:42:57.266Z,96.20
2018-06-18T04:45:32.800Z,95.90
2018-06-18T04:51:08.630Z,95.70
2018-06-18T04:53:38.530Z,95.70
2018-06-18T04:56:24.809Z,95.60
2018-06-18T04:59:09.787Z,95.90
2018-06-18T05:01:48.513Z,95.70
2018-06-18T05:04:20.362Z,95.70
2018-06-18T05:06:50.969Z,96.00
2018-06-18T05:09:29.132Z,95.90
2018-06-18T05:11:59.655Z,95.80
2018-06-18T05:14:33.900Z,95.30
2018-06-18T05:17:02.979Z,95.30
2018-06-18T05:22:24.215Z,95.10
2018-06-18T05:25:05.990Z,95.00
2018-06-18T05:27:39.062Z,94.80
2018-06-18T05:30:12.823Z,94.70
2018-06-18T05:32:42.552Z,94.40
2018-06-18T05:35:13.464Z,94.20
2018-06-18T05:37:52.677Z,94.40
2018-06-18T05:40:36.279Z,94.40
2018-06-18T05:43:16.870Z,94.40
2018-06-18T05:45:48.549Z,94.10
2018-06-18T05:48:19.552Z,93.60
2018-06-18T05:50:50.474Z,93.40
2018-06-18T05:53:20.402Z,92.90
2018-06-18T05:55:55.302Z,92.60
2018-06-18T05:58:25.784Z,92.20
2018-06-18T06:01:00.430Z,93.00
2018-06-18T06:03:35.861Z,92.80
2018-06-18T06:06:08.306Z,92.90
2018-06-18T06:08:42.119Z,92.80
2018-06-18T06:11:11.441Z,92.80
2018-06-18T06:13:40.966Z,92.80
2018-06-18T06:16:10.412Z,92.80
2018-06-18T06:18:40.031Z,92.30
2018-06-18T06:21:11.349Z,92.10
2018-06-18T06:23:40.649Z,92.00
2018-06-18T06:26:09.826Z,91.70
2018-06-18T06:28:40.602Z,91.70
2018-06-18T06:31:09.923Z,91.50
2018-06-18T06:33:39.260Z,91.30
2018-06-18T06:36:09.591Z,90.70
2018-06-18T06:38:39.109Z,90.40
2018-06-18T06:41:09.873Z,90.30
2018-06-18T06:43:39.224Z,89.20
2018-06-18T06:46:08.288Z,89.00
2018-06-18T06:48:37.806Z,86.50
2018-06-18T06:51:06.975Z,84.40
2018-06-18T06:53:36.308Z,84.30
2018-06-18T06:56:05.633Z,85.20
2018-06-18T06:58:35.110Z,86.50
2018-06-18T07:01:10.689Z,86.80
2018-06-18T07:03:43.990Z,88.90
2018-06-18T07:06:13.238Z,88.80
2018-06-18T07:08:42.533Z,88.60
2018-06-18T07:11:17.704Z,89.30
2018-06-18T07:13:47.320Z,90.00
2018-06-18T07:16:16.742Z,90.30
2018-06-18T07:18:46.485Z,90.60
2018-06-18T07:21:16.398Z,90.80
2018-06-18T07:23:45.868Z,90.60
2018-06-18T07:26:15.143Z,91.00
2018-06-18T07:28:44.560Z,91.10
2018-06-18T07:31:14.333Z,91.40
2018-06-18T07:33:43.573Z,91.70
2018-06-18T07:36:12.910Z,91.80
2018-06-18T07:38:49.005Z,92.30
2018-06-18T07:41:19.734Z,92.40
2018-06-18T07:43:49.128Z,92.40
2018-06-18T07:46:18.499Z,92.50
2018-06-18T07:48:47.991Z,92.30
2018-06-18T07:51:17.229Z,92.30
2018-06-18T07:53:46.644Z,92.20
2018-06-18T07:56:16.129Z,91.40
2018-06-18T07:58:45.397Z,91.40
2018-06-18T08:01:14.901Z,91.40
2018-06-18T08:03:44.316Z,91.30
2018-06-18T08:06:13.706Z,91.40
2018-06-18T08:08:43.198Z,91.50
2018-06-18T08:11:12.514Z,91.30
2018-06-18T08:13:42.203Z,91.30
2018-06-18T08:16:14.130Z,91.00
2018-06-18T08:18:43.860Z,90.90
2018-06-18T08:21:13.281Z,90.90
2018-06-18T08:23:48.563Z,90.60
2018-06-18T08:26:45.262Z,90.40
2018-06-18T08:29:15.943Z,90.10
2018-06-18T08:31:45.353Z,90.10
2018-06-18T08:34:14.832Z,90.30
2018-06-18T08:36:45.410Z,90.20
2018-06-18T08:39:15.192Z,90.10
2018-06-18T08:41:44.590Z,90.30
2018-06-18T08:44:14.202Z,89.80
2018-06-18T08:46:43.704Z,89.30
2018-06-18T08:49:13.201Z,89.10
2018-06-18T08:51:47.734Z,88.10
2018-06-18T08:54:22.570Z,87.30
2018-06-18T08:56:57.284Z,85.30
2018-06-18T08:59:34.072Z,83.40
2018-06-18T09:02:03.923Z,83.40
2018-06-18T09:04:40.159Z,82.60
2018-06-18T09:07:15.996Z,82.60
2018-06-18T09:09:46.103Z,77.90
2018-06-18T09:12:15.366Z,77.50
2018-06-18T09:14:47.791Z,75.10
2018-06-18T09:17:17.573Z,74.20
2018-06-18T09:19:47.347Z,73.20
2018-06-18T09:22:44.702Z,74.90
2018-06-18T09:28:44.184Z,75.90
2018-06-18T09:31:15.774Z,78.80
2018-06-18T09:33:45.641Z,80.00
2018-06-18T09:36:16.387Z,81.00
2018-06-18T09:38:48.174Z,81.80
2018-06-18T09:41:19.435Z,82.30
2018-06-18T09:43:50.737Z,82.00
2018-06-18T09:46:23.376Z,81.80
2018-06-18T09:48:59.495Z,81.30
2018-06-18T09:51:36.336Z,79.60
2018-06-18T09:54:19.301Z,78.00
2018-06-18T09:56:55.668Z,78.50
2018-06-18T09:59:41.908Z,77.40
2018-06-18T10:02:12.598Z,77.80
2018-06-18T10:04:43.156Z,78.10
2018-06-18T10:07:17.718Z,79.50
2018-06-18T10:09:52.917Z,80.10
2018-06-18T10:12:24.685Z,80.70
2018-06-18T10:14:56.180Z,79.70
2018-06-18T10:17:38.582Z,79.60
2018-06-18T10:20:15.216Z,80.50
2018-06-18T10:22:58.072Z,80.20
2018-06-18T10:25:28.723Z,79.50
2018-06-18T10:28:00.226Z,79.60
2018-06-18T10:30:35.659Z,79.70
2018-06-18T10:33:17.627Z,78.20
2018-06-18T10:35:56.697Z,73.80
2018-06-18T10:38:37.109Z,67.10
2018-06-18T10:43:26.097Z,60.30
2018-06-18T10:46:00.037Z,56.40
2018-06-18T10:48:32.543Z,52.50
2018-06-18T10:51:29.545Z,52.50
2018-06-18T10:54:09.312Z,56.00
2018-06-18T11:03:20.768Z,69.60
2018-06-18T11:05:56.365Z,70.80
2018-06-18T11:10:59.467Z,72.40
2018-06-18T11:13:40.805Z,71.80
2018-06-18T11:20:03.398Z,73.60
2018-06-18T11:23:47.365Z,74.60
2018-06-18T11:26:24.891Z,74.90
2018-06-18T11:28:58.967Z,74.00
2018-06-18T11:32:03.022Z,72.80
2018-06-18T11:34:38.045Z,72.40
2018-06-18T11:37:09.692Z,73.80
2018-06-18T11:39:40.738Z,74.10
2018-06-18T11:42:13.131Z,74.00
2018-06-18T11:51:16.813Z,74.00
2018-06-18T11:53:47.550Z,74.20
2018-06-18T11:56:18.347Z,75.20
2018-06-18T11:58:53.285Z,77.70
2018-06-18T12:01:28.954Z,79.40
2018-06-18T12:04:04.905Z,78.60
2018-06-18T12:08:45.814Z,78.30
2018-06-18T12:11:15.859Z,78.20
2018-06-18T12:13:46.779Z,77.30
2018-06-18T12:23:01.516Z,78.70
2018-06-18T12:25:33.532Z,79.10
2018-06-18T12:28:04.752Z,79.30
2018-06-18T12:33:06.686Z,79.40
2018-06-18T12:35:39.362Z,80.30
2018-06-18T12:38:11.942Z,81.60
2018-06-18T12:43:13.568Z,83.20
2018-06-18T12:45:51.071Z,84.60
2018-06-18T12:48:32.745Z,88.50
2018-06-18T12:51:18.626Z,90.90
2018-06-18T12:53:53.573Z,92.20
2018-06-18T12:56:28.211Z,92.30
2018-06-18T12:58:59.467Z,91.80
2018-06-18T13:01:31.778Z,91.60
2018-06-18T13:06:33.928Z,90.40
2018-06-18T13:09:04.634Z,88.90
2018-06-18T13:11:36.693Z,86.80
2018-06-18T13:14:07.774Z,85.30
2018-06-18T13:16:39.893Z,85.20
2018-06-18T13:19:09.693Z,82.60
2018-06-18T13:21:41.381Z,80.40
2018-06-18T13:24:14.346Z,80.60
2018-06-18T13:26:45.118Z,77.80
2018-06-18T13:29:16.560Z,77.80
2018-06-18T13:31:49.369Z,77.30
2018-06-18T13:36:58.925Z,81.80
2018-06-18T13:39:38.035Z,82.70
2018-06-18T13:42:16.443Z,83.30
2018-06-18T13:44:58.613Z,86.10
2018-06-18T13:47:43.498Z,91.10
2018-06-18T13:50:15.314Z,90.80
2018-06-18T13:52:48.687Z,92.30
2018-06-18T13:55:20.782Z,92.40
2018-06-18T13:57:59.691Z,92.80
2018-06-18T14:03:27.011Z,91.40
2018-06-18T14:06:02.486Z,91.40
2018-06-18T14:08:32.144Z,91.10
2018-06-18T14:11:02.432Z,90.70
2018-06-18T14:13:34.779Z,90.80
2018-06-18T14:16:04.932Z,90.60
2018-06-18T14:18:37.301Z,90.60
2018-06-18T14:21:11.761Z,90.70
2018-06-18T14:23:43.217Z,90.60
2018-06-18T14:26:13.834Z,90.50
2018-06-18T14:29:31.641Z,90.70
2018-06-18T14:32:17.614Z,90.50
2018-06-18T14:34:52.737Z,88.40
2018-06-18T14:37:28.407Z,88.30
2018-06-18T14:40:04.686Z,88.20
2018-06-18T14:45:13.840Z,87.90
2018-06-18T14:47:52.412Z,87.10
2018-06-18T14:50:22.633Z,87.10
2018-06-18T14:52:54.220Z,86.80
2018-06-18T14:55:24.940Z,87.20
2018-06-18T14:57:58.240Z,86.30
2018-06-18T15:00:37.793Z,85.00
2018-06-18T15:03:10.053Z,85.40
2018-06-18T15:05:45.560Z,83.60
2018-06-18T15:08:17.189Z,83.30
2018-06-18T15:10:52.119Z,83.50
2018-06-18T15:13:21.628Z,84.30
2018-06-18T15:16:02.932Z,84.50
2018-06-18T15:18:32.631Z,83.10
2018-06-18T15:21:05.412Z,81.60
2018-06-18T15:23:35.497Z,81.90
2018-06-18T15:26:07.710Z,83.00
2018-06-18T15:28:39.660Z,82.70
2018-06-18T15:31:15.261Z,83.00
2018-06-18T15:33:47.922Z,81.90
2018-06-18T15:36:17.676Z,83.50
2018-06-18T15:38:50.225Z,82.70
2018-06-18T15:41:20.787Z,82.90
2018-06-18T15:43:58.147Z,82.40
2018-06-18T15:46:28.013Z,82.30
2018-06-18T15:49:05.278Z,81.90
2018-06-18T15:51:36.775Z,82.30
2018-06-18T15:54:06.882Z,84.10
2018-06-18T15:56:36.975Z,86.10
2018-06-18T15:59:09.877Z,86.90
2018-06-18T16:01:41.745Z,87.40
2018-06-18T16:04:16.790Z,88.30
2018-06-18T16:06:47.208Z,88.20
2018-06-18T16:09:48.658Z,87.70
2018-06-18T16:12:30.508Z,87.10
2018-06-18T16:15:01.793Z,86.80
2018-06-18T16:17:43.164Z,86.30
2018-06-18T16:20:15.250Z,87.40
2018-06-18T16:22:53.391Z,87.80
2018-06-18T16:25:26.841Z,86.80
2018-06-18T16:28:00.430Z,86.10
2018-06-18T16:30:34.549Z,86.40
2018-06-18T16:33:07.733Z,85.70
2018-06-18T16:35:59.885Z,85.00
2018-06-18T16:38:33.505Z,84.50
2018-06-18T16:41:16.172Z,82.90
2018-06-18T16:43:51.761Z,83.70
2018-06-18T16:46:21.762Z,83.50
2018-06-18T16:48:55.721Z,83.00
2018-06-18T16:51:27.132Z,84.10
2018-06-18T16:54:02.779Z,83.60
2018-06-18T16:56:34.385Z,83.60
2018-06-18T16:59:10.721Z,84.50
2018-06-18T17:01:41.611Z,84.40
2018-06-18T17:04:13.077Z,85.50
2018-06-18T17:06:43.125Z,85.30
2018-06-18T17:09:13.367Z,85.20
2018-06-18T17:11:46.463Z,83.90
2018-06-18T17:14:31.418Z,84.20
2018-06-18T17:17:14.633Z,82.90
2018-06-18T17:19:48.352Z,83.40
2018-06-18T17:24:52.656Z,84.70
2018-06-18T17:27:33.093Z,84.50
2018-06-18T17:30:04.247Z,84.10
2018-06-18T17:32:34.446Z,83.60
2018-06-18T17:35:10.397Z,83.30
2018-06-18T17:37:39.940Z,84.00
2018-06-18T17:40:12.556Z,85.50
2018-06-18T17:42:43.668Z,86.10
2018-06-18T17:45:14.970Z,87.20
2018-06-18T17:47:47.634Z,87.50
2018-06-18T17:50:19.857Z,87.60
2018-06-18T17:52:50.418Z,88.20
2018-06-18T17:55:22.959Z,88.50
2018-06-18T17:58:02.094Z,88.50
2018-06-18T18:00:43.940Z,89.70
2018-06-18T18:03:13.725Z,89.70
2018-06-18T18:05:43.806Z,90.00
2018-06-18T18:08:13.656Z,90.10
2018-06-18T18:10:43.573Z,90.00
2018-06-18T18:13:17.014Z,90.20
2018-06-18T18:15:50.046Z,90.40
2018-06-18T18:18:20.743Z,90.40
2018-06-18T18:20:53.955Z,90.20
2018-06-18T18:23:24.258Z,90.20
2018-06-18T18:25:58.330Z,90.30
2018-06-18T18:28:45.036Z,90.50
2018-06-18T18:31:29.715Z,90.40
2018-06-18T18:34:00.953Z,90.60
2018-06-18T18:36:31.677Z,90.70
2018-06-18T18:39:01.808Z,90.80
2018-06-18T18:41:33.274Z,90.70
2018-06-18T18:44:02.910Z,91.30
2018-06-18T18:46:33.544Z,91.30
2018-06-18T18:49:05.557Z,91.20
2018-06-18T18:51:35.695Z,91.30
2018-06-18T18:54:06.598Z,91.50
2018-06-18T18:56:53.022Z,91.70
2018-06-18T18:59:30.452Z,91.90
2018-06-18T19:02:02.020Z,92.10
2018-06-18T19:04:40.469Z,92.60
2018-06-18T19:07:21.533Z,92.70
2018-06-18T19:10:36.512Z,92.90
2018-06-18T19:13:11.631Z,93.10
2018-06-18T19:15:46.980Z,93.00
2018-06-18T19:18:17.708Z,93.40
2018-06-18T19:21:00.469Z,93.40
2018-06-18T19:23:39.151Z,93.70
2018-06-18T19:26:10.177Z,93.80
2018-06-18T19:28:41.363Z,93.80
2018-06-18T19:31:29.673Z,93.80
2018-06-18T19:34:08.308Z,94.10
2018-06-18T19:36:39.228Z,93.90
2018-06-18T19:39:10.702Z,93.90
2018-06-18T19:41:40.347Z,94.00
2018-06-18T19:44:12.118Z,94.00
2018-06-18T19:47:49.289Z,94.10
2018-06-18T19:50:27.739Z,93.80
2018-06-18T19:52:57.717Z,93.80
2018-06-18T19:55:30.415Z,93.80
2018-06-18T19:58:02.654Z,93.70
2018-06-18T20:00:39.009Z,93.80
2018-06-18T20:03:12.916Z,93.80
2018-06-18T20:05:47.326Z,93.70
2018-06-18T20:08:31.488Z,93.60
2018-06-18T20:11:07.302Z,93.70
2018-06-18T20:13:43.725Z,93.80
2018-06-18T20:16:14.623Z,94.00
2018-06-18T20:18:49.528Z,94.20
2018-06-18T20:21:19.803Z,94.20
2018-06-18T20:23:54.565Z,94.30
2018-06-18T20:26:29.987Z,94.50
2018-06-18T20:29:00.925Z,94.50
2018-06-18T20:31:35.549Z,94.40
2018-06-18T20:34:11.723Z,94.70
2018-06-18T20:36:42.171Z,95.00
2018-06-18T20:39:19.549Z,95.10
2018-06-18T20:41:50.496Z,95.20
2018-06-18T20:44:29.290Z,95.10
2018-06-18T20:46:59.481Z,95.00
2018-06-18T20:49:31.825Z,95.00
2018-06-18T20:52:03.059Z,94.70
2018-06-18T20:54:37.851Z,95.10
2018-06-18T20:57:18.417Z,95.30
2018-06-18T21:03:11.804Z,95.50
2018-06-18T21:05:45.493Z,95.40
2018-06-18T21:08:18.627Z,95.60
2018-06-18T21:10:53.709Z,95.60
2018-06-18T21:13:27.074Z,95.80
2018-06-18T21:15:59.431Z,95.90
2018-06-18T21:18:34.425Z,95.90
2018-06-18T21:21:10.878Z,96.00
2018-06-18T21:23:48.617Z,96.20
2018-06-18T21:26:19.241Z,96.30
2018-06-18T21:28:49.899Z,96.50
2018-06-18T21:31:20.509Z,96.80
2018-06-18T21:33:57.372Z,96.90
2018-06-18T21:36:28.708Z,96.70
2018-06-18T21:39:01.154Z,96.90
2018-06-18T21:41:32.678Z,96.90
2018-06-18T21:44:06.210Z,97.00
2018-06-18T21:46:42.338Z,97.00
2018-06-18T22:04:28.289Z,97.50
2018-06-18T22:07:00.215Z,97.20
2018-06-18T22:10:40.194Z,97.40
2018-06-18T22:20:45.566Z,98.00
2018-06-18T22:30:56.980Z,98.30
2018-06-18T22:33:28.759Z,98.40
2018-06-18T22:36:10.597Z,97.90
2018-06-18T22:45:18.050Z,97.90
2018-06-18T22:48:19.857Z,97.70
2018-06-18T22:50:57.384Z,97.80
2018-06-18T22:53:28.829Z,97.70
2018-06-18T22:56:01.594Z,97.70
2018-06-18T22:58:34.597Z,97.90
2018-06-18T23:08:07.244Z,97.70
2018-06-18T23:10:41.965Z,97.90
2018-06-18T23:13:13.655Z,98.10
2018-06-18T23:16:07.854Z,98.20
2018-06-18T23:22:00.398Z,98.40
2018-06-18T23:24:46.444Z,98.50
2018-06-18T23:27:31.621Z,98.60
2018-06-18T23:33:26.847Z,98.90
2018-06-18T23:35:59.755Z,99.10
2018-06-18T23:38:35.157Z,99.10
2018-06-18T23:41:06.822Z,99.10
2018-06-18T23:55:48.286Z,99.70
2018-06-18T23:58:24.357Z,99.90
